Time;durP1;ratioP1;P1;durP2;ratioP2;P2;SDS_P1;SDS_P2;PMS_P1;PMS_P2;Temp;Humidity;BMP_temperature;BMP_pressure;BME280_temperature;BME280_humidity;BME280_pressure;Samples;Min_cycle;Max_cycle;Signal;HPM_P1;HPM_P2
2023/04/16 00:02:01;;;;;;;47.58;24.42;;;;;;;6.63;95.16;92618.88;5074376;28;20083;-72
2023/04/16 00:04:28;;;;;;;23.77;11.90;;;;;;;6.65;94.44;92617.69;5074227;28;20044;-72
2023/04/16 00:06:55;;;;;;;23.60;11.52;;;;;;;6.73;93.75;92615.91;5080428;28;20052;-72
2023/04/16 00:09:21;;;;;;;31.77;15.48;;;;;;;6.80;93.90;92609.78;5069649;28;20556;-71
2023/04/16 00:11:48;;;;;;;27.42;14.13;;;;;;;6.85;93.93;92608.41;5074965;28;20040;-72
2023/04/16 00:14:15;;;;;;;22.80;12.63;;;;;;;6.90;93.65;92611.91;5073986;28;20052;-72
2023/04/16 00:16:43;;;;;;;17.45;10.45;;;;;;;6.86;93.21;92613.31;5084412;28;20529;-71
2023/04/16 00:19:09;;;;;;;22.92;8.82;;;;;;;6.86;93.65;92612.53;5077537;28;20049;-71
2023/04/16 00:21:36;;;;;;;17.45;9.77;;;;;;;6.86;93.85;92609.97;5080405;28;20053;-72
2023/04/16 00:24:03;;;;;;;16.33;8.75;;;;;;;6.78;94.88;92605.88;5077579;28;20052;-72
2023/04/16 00:26:30;;;;;;;17.35;10.30;;;;;;;6.77;97.31;92610.19;5070203;28;20052;-71
2023/04/16 00:28:57;;;;;;;19.52;9.68;;;;;;;6.65;97.93;92606.69;5078163;28;20047;-71
2023/04/16 00:31:28;;;;;;;15.63;9.43;;;;;;;6.58;97.11;92606.72;5082868;28;20048;-71
2023/04/16 00:33:56;;;;;;;16.65;8.43;;;;;;;6.62;96.30;92596.91;5077347;28;20135;-71
2023/04/16 00:36:23;;;;;;;17.42;8.75;;;;;;;6.67;96.75;92597.09;5074202;28;20113;-72
2023/04/16 00:38:50;;;;;;;16.38;8.60;;;;;;;6.75;98.29;92603.75;5084269;28;20048;-71
2023/04/16 00:41:19;;;;;;;18.27;10.48;;;;;;;6.80;97.80;92606.44;5074056;28;20463;-71
2023/04/16 00:43:46;;;;;;;20.45;10.98;;;;;;;6.73;98.74;92596.28;5078708;28;20048;-71
2023/04/16 00:46:12;;;;;;;16.65;8.82;;;;;;;6.77;97.06;92596.66;5079901;28;20051;-71
2023/04/16 00:48:41;;;;;;;19.33;10.85;;;;;;;6.78;96.59;92598.22;5082855;28;20040;-71
2023/04/16 00:51:09;;;;;;;14.07;7.90;;;;;;;6.51;96.79;92560.00;5081605;28;20421;-71
2023/04/16 00:53:36;;;;;;;14.50;7.75;;;;;;;6.73;97.00;92598.84;5069891;28;20050;-72
2023/04/16 00:56:06;;;;;;;13.90;7.53;;;;;;;6.74;95.62;92591.94;5080415;28;20097;-71
2023/04/16 00:58:34;;;;;;;12.88;6.80;;;;;;;6.71;95.68;92589.81;5080144;28;20451;-72
2023/04/16 01:01:02;;;;;;;12.82;6.88;;;;;;;6.63;95.74;92580.59;5079324;28;20048;-72
2023/04/16 01:03:37;;;;;;;12.48;7.45;;;;;;;6.63;98.66;92583.91;5073678;28;20077;-72
2023/04/16 01:06:05;;;;;;;14.73;8.40;;;;;;;6.51;97.41;92568.47;5073899;28;20074;-71
2023/04/16 01:08:33;;;;;;;13.80;7.88;;;;;;;6.61;97.83;92580.03;5084873;28;20048;-72
2023/04/16 01:11:00;;;;;;;14.52;7.93;;;;;;;6.58;98.16;92581.22;5074009;28;20052;-72
2023/04/16 01:13:26;;;;;;;11.95;6.35;;;;;;;6.51;98.86;92576.13;5074067;28;20052;-72
2023/04/16 01:15:53;;;;;;;6.63;4.20;;;;;;;6.44;99.22;92577.09;5084278;28;20056;-72
2023/04/16 01:18:21;;;;;;;8.48;4.50;;;;;;;6.41;98.70;92583.38;5073782;28;20067;-72
2023/04/16 01:20:50;;;;;;;10.43;4.65;;;;;;;6.41;98.28;92575.75;5084849;28;20052;-72
2023/04/16 01:23:18;;;;;;;10.60;5.60;;;;;;;6.33;100.00;92578.47;5072775;28;20500;-72
2023/04/16 01:25:45;;;;;;;8.07;4.00;;;;;;;6.26;100.00;92575.97;5076512;28;20044;-72
2023/04/16 01:28:11;;;;;;;7.32;4.03;;;;;;;6.15;100.00;92562.84;5078016;28;20105;-71
2023/04/16 01:30:38;;;;;;;8.23;4.30;;;;;;;6.11;100.00;92574.41;5083575;28;20090;-72
2023/04/16 01:33:06;;;;;;;4.95;3.08;;;;;;;6.06;100.00;92566.56;5075700;28;20455;-72
2023/04/16 01:35:32;;;;;;;6.57;3.15;;;;;;;5.81;100.00;92549.28;5079096;28;20044;-71
2023/04/16 01:38:00;;;;;;;6.68;3.85;;;;;;;5.88;100.00;92567.91;5087626;28;20048;-71
2023/04/16 01:40:27;;;;;;;13.13;6.68;;;;;;;5.82;100.00;92568.69;5060273;28;20463;-72
2023/04/16 01:42:54;;;;;;;8.77;4.97;;;;;;;5.80;100.00;92564.78;5081542;28;20051;-73
2023/04/16 01:45:21;;;;;;;31.45;14.35;;;;;;;5.72;100.00;92563.19;5076528;28;20040;-73
2023/04/16 01:47:49;;;;;;;52.53;23.35;;;;;;;5.72;100.00;92569.09;5078009;28;20515;-72
2023/04/16 01:50:16;;;;;;;30.75;14.90;;;;;;;5.70;100.00;92558.28;5086196;28;20052;-72
2023/04/16 01:52:44;;;;;;;28.05;13.52;;;;;;;5.62;100.00;92553.41;5077768;28;20098;-71
2023/04/16 01:55:12;;;;;;;24.15;11.60;;;;;;;5.66;100.00;92559.69;5076788;28;20097;-71
2023/04/16 01:57:39;;;;;;;28.65;13.70;;;;;;;5.66;100.00;92553.78;5081227;28;20094;-71
2023/04/16 02:00:08;;;;;;;28.60;14.73;;;;;;;5.55;100.00;92553.38;5082978;28;20062;-71
2023/04/16 02:02:35;;;;;;;20.60;10.50;;;;;;;5.55;100.00;92555.94;5072219;28;20486;-71
2023/04/16 02:05:02;;;;;;;15.18;7.60;;;;;;;5.48;100.00;92537.31;5083076;28;20047;-71
2023/04/16 02:07:30;;;;;;;11.55;5.93;;;;;;;5.56;100.00;92546.53;5077641;28;20044;-71
2023/04/16 02:09:57;;;;;;;9.23;5.50;;;;;;;5.50;100.00;92540.44;5076150;28;20132;-72
2023/04/16 02:12:26;;;;;;;11.35;4.80;;;;;;;5.50;100.00;92537.13;5080844;28;20131;-72
2023/04/16 02:14:52;;;;;;;7.53;4.18;;;;;;;5.57;100.00;92546.34;5082490;28;20454;-72
2023/04/16 02:17:19;;;;;;;7.13;3.78;;;;;;;5.56;100.00;92546.53;5076287;28;20055;-72
2023/04/16 02:19:46;;;;;;;6.90;2.67;;;;;;;5.53;100.00;92549.47;5079533;28;20052;-72
2023/04/16 02:22:13;;;;;;;6.05;2.53;;;;;;;5.46;100.00;92534.19;5075649;28;20048;-71
2023/04/16 02:24:40;;;;;;;7.72;2.88;;;;;;;5.55;100.00;92547.53;5077536;28;20090;-71
2023/04/16 02:27:06;;;;;;;4.88;2.88;;;;;;;5.55;100.00;92545.75;5085030;28;20545;-71
2023/04/16 02:29:34;;;;;;;6.20;3.35;;;;;;;5.45;100.00;92541.03;5079374;28;20090;-71
2023/04/16 02:32:01;;;;;;;6.80;3.22;;;;;;;5.48;100.00;92550.81;5082832;28;20044;-71
2023/04/16 02:34:28;;;;;;;8.55;3.97;;;;;;;5.49;100.00;92554.16;5071584;28;20090;-71
2023/04/16 02:36:57;;;;;;;9.05;3.65;;;;;;;5.50;100.00;92549.88;5071751;28;20040;-71
2023/04/16 02:39:23;;;;;;;7.03;2.83;;;;;;;5.49;100.00;92554.16;5075175;28;20051;-72
2023/04/16 02:41:51;;;;;;;21.42;9.85;;;;;;;5.51;100.00;92556.53;5077879;28;20109;-71
2023/04/16 02:44:18;;;;;;;16.20;8.65;;;;;;;5.57;100.00;92555.75;5084004;28;20127;-72
2023/04/16 02:46:46;;;;;;;54.05;27.17;;;;;;;5.59;100.00;92553.78;5075937;28;20048;-71
2023/04/16 02:49:13;;;;;;;27.48;15.80;;;;;;;5.59;100.00;92552.03;5083313;28;20390;-71
2023/04/16 02:51:40;;;;;;;21.75;12.45;;;;;;;5.60;100.00;92558.69;5077361;28;20048;-71
2023/04/16 02:54:06;;;;;;;19.33;10.50;;;;;;;5.61;100.00;92550.06;5074128;28;20052;-71
2023/04/16 02:56:33;;;;;;;17.30;9.48;;;;;;;5.66;100.00;92552.03;5078731;28;20455;-71
2023/04/16 02:59:00;;;;;;;13.15;7.18;;;;;;;5.70;100.00;92548.09;5071125;28;20105;-71
2023/04/16 03:01:27;;;;;;;11.52;6.45;;;;;;;5.73;100.00;92557.91;5076444;28;20052;-71
2023/04/16 03:03:55;;;;;;;8.45;4.32;;;;;;;5.66;100.00;92548.69;5075208;28;20059;-71
2023/04/16 03:06:22;;;;;;;9.25;4.22;;;;;;;5.66;100.00;92551.25;5082850;28;20044;-71
2023/04/16 03:08:48;;;;;;;8.70;3.90;;;;;;;5.70;100.00;92547.34;5076011;28;20435;-71
2023/04/16 03:11:15;;;;;;;8.10;4.13;;;;;;;5.70;100.00;92540.47;5074948;28;20094;-71
2023/04/16 03:13:42;;;;;;;7.57;4.18;;;;;;;5.85;100.00;92560.66;5075302;28;20411;-71
2023/04/16 03:16:09;;;;;;;9.10;5.68;;;;;;;5.87;100.00;92561.25;5076280;28;20111;-71
2023/04/16 03:18:35;;;;;;;9.65;6.07;;;;;;;5.87;100.00;92560.47;5084483;28;20089;-71
2023/04/16 03:21:04;;;;;;;13.73;7.15;;;;;;;5.87;100.00;92552.81;5088344;28;20089;-71
2023/04/16 03:23:31;;;;;;;13.95;7.93;;;;;;;5.93;100.00;92554.56;5074394;28;20457;-71
2023/04/16 03:25:57;;;;;;;12.65;7.78;;;;;;;5.97;100.00;92565.94;5088014;28;20109;-71
2023/04/16 03:28:24;;;;;;;18.10;10.35;;;;;;;5.98;100.00;92559.09;5084691;28;20086;-72
2023/04/16 03:30:52;;;;;;;15.15;9.80;;;;;;;5.88;100.00;92547.53;5067776;28;20056;-71
2023/04/16 03:33:19;;;;;;;16.83;9.65;;;;;;;5.99;100.00;92564.00;5067932;28;20064;-71
2023/04/16 03:35:46;;;;;;;16.02;9.85;;;;;;;5.99;100.00;92560.66;5067923;28;20505;-71
2023/04/16 03:38:14;;;;;;;17.08;10.30;;;;;;;6.00;100.00;92564.78;5067419;28;20044;-72
2023/04/16 03:40:41;;;;;;;18.85;11.73;;;;;;;5.97;100.00;92563.41;5067488;28;20072;-72
2023/04/16 03:43:07;;;;;;;31.15;16.98;;;;;;;6.01;100.00;92573.97;5067600;28;20109;-72
2023/04/16 03:45:34;;;;;;;22.38;11.52;;;;;;;6.00;100.00;92569.88;5067197;28;20040;-71
2023/04/16 03:48:01;;;;;;;20.73;12.63;;;;;;;5.97;100.00;92567.72;5076046;28;20633;-71
2023/04/16 03:50:27;;;;;;;27.27;13.80;;;;;;;5.95;100.00;92565.38;5087550;28;20101;-71
2023/04/16 03:52:54;;;;;;;14.90;8.88;;;;;;;5.96;100.00;92566.13;5087467;28;20040;-71
2023/04/16 03:55:25;;;;;;;19.33;11.35;;;;;;;5.99;100.00;92575.94;5086515;28;20447;-71
2023/04/16 03:57:51;;;;;;;13.50;7.65;;;;;;;5.98;100.00;92574.38;5087092;28;20431;-71
2023/04/16 04:00:18;;;;;;;15.77;8.45;;;;;;;6.00;100.00;92570.66;5085124;28;20048;-72
2023/04/16 04:02:45;;;;;;;11.90;6.47;;;;;;;6.00;100.00;92574.97;5087644;28;20044;-71
2023/04/16 04:05:11;;;;;;;9.00;3.97;;;;;;;5.96;100.00;92571.22;5087217;28;20093;-71
2023/04/16 04:07:38;;;;;;;9.45;4.95;;;;;;;5.91;100.00;92559.09;5087761;28;20047;-71
2023/04/16 04:10:06;;;;;;;8.70;4.25;;;;;;;5.75;100.00;92539.88;5087339;28;20093;-71
2023/04/16 04:12:34;;;;;;;9.50;4.55;;;;;;;6.01;100.00;92577.31;5068730;28;20044;-71
2023/04/16 04:15:01;;;;;;;14.82;5.07;;;;;;;6.06;100.00;92573.44;5087808;28;20121;-71
2023/04/16 04:17:27;;;;;;;12.73;5.13;;;;;;;6.06;100.00;92581.84;5073365;28;20101;-71
2023/04/16 04:19:54;;;;;;;8.75;4.50;;;;;;;6.06;100.00;92571.66;5086881;28;20040;-71
2023/04/16 04:22:21;;;;;;;11.80;5.15;;;;;;;6.08;100.00;92582.47;5067487;28;20056;-71
2023/04/16 04:24:47;;;;;;;13.50;5.32;;;;;;;6.10;100.00;92579.69;5071138;28;20049;-71
2023/04/16 04:27:14;;;;;;;12.68;4.82;;;;;;;6.14;100.00;92591.06;5072099;28;20570;-71
2023/04/16 04:29:42;;;;;;;7.00;4.32;;;;;;;6.14;100.00;92591.06;5080908;28;20048;-71
2023/04/16 04:32:09;;;;;;;8.60;3.95;;;;;;;6.14;100.00;92596.97;5084220;28;20044;-71
2023/04/16 04:34:35;;;;;;;6.88;3.30;;;;;;;6.19;100.00;92593.03;5086665;28;20090;-71
2023/04/16 04:37:02;;;;;;;12.25;4.80;;;;;;;6.13;100.00;92581.84;5086506;28;20095;-71
2023/04/16 04:39:29;;;;;;;7.53;3.90;;;;;;;6.21;100.00;92591.06;5078566;28;20048;-71
2023/04/16 04:41:57;;;;;;;8.02;3.50;;;;;;;6.23;100.00;92591.66;5087181;28;20048;-71
2023/04/16 04:44:23;;;;;;;8.45;4.30;;;;;;;6.25;100.00;92587.16;5086504;28;20048;-71
2023/04/16 04:46:51;;;;;;;8.38;4.43;;;;;;;6.31;100.00;92595.75;5086731;28;20439;-71
2023/04/16 04:49:18;;;;;;;12.00;7.00;;;;;;;6.35;100.00;92597.72;5086659;28;20044;-71
2023/04/16 04:51:45;;;;;;;10.20;5.40;;;;;;;6.38;100.00;92599.88;5086749;28;20044;-71
2023/04/16 04:54:12;;;;;;;9.88;5.07;;;;;;;6.45;100.00;92597.31;5086083;28;20065;-71
2023/04/16 04:56:38;;;;;;;9.95;5.32;;;;;;;6.50;100.00;92597.50;5086398;28;20094;-71
2023/04/16 04:59:05;;;;;;;13.68;5.88;;;;;;;6.51;100.00;92585.53;5086812;28;20048;-71
2023/04/16 05:01:32;;;;;;;13.65;5.70;;;;;;;6.59;100.00;92585.31;5089634;28;20121;-71
2023/04/16 05:04:00;;;;;;;7.75;4.10;;;;;;;6.67;100.00;92579.97;5082581;28;20057;-71
2023/04/16 05:06:27;;;;;;;8.95;3.67;;;;;;;6.78;100.00;92591.34;5081274;28;20056;-72
2023/04/16 05:08:53;;;;;;;7.32;3.72;;;;;;;6.83;100.00;92595.84;5090315;28;20489;-71
2023/04/16 05:11:20;;;;;;;6.95;3.50;;;;;;;6.90;100.00;92596.59;5090169;28;20094;-71
2023/04/16 05:13:47;;;;;;;5.72;3.05;;;;;;;6.94;100.00;92587.56;5090170;28;20488;-71
2023/04/16 05:16:13;;;;;;;5.28;2.97;;;;;;;7.02;100.00;92588.31;5090246;28;20473;-71
2023/04/16 05:18:40;;;;;;;9.40;5.80;;;;;;;7.08;100.00;92588.28;5090326;28;20052;-71
2023/04/16 05:21:08;;;;;;;18.40;8.27;;;;;;;7.09;100.00;92578.88;5082568;28;20138;-71
2023/04/16 05:23:35;;;;;;;19.48;10.30;;;;;;;7.24;100.00;92588.03;5090269;28;20052;-71
2023/04/16 05:26:02;;;;;;;15.10;7.90;;;;;;;7.27;100.00;92585.84;5089688;28;20040;-71
2023/04/16 05:28:28;;;;;;;14.95;8.32;;;;;;;7.32;100.00;92587.78;5090195;28;20101;-71
2023/04/16 05:30:55;;;;;;;12.65;7.10;;;;;;;7.42;100.00;92587.34;5080449;28;20040;-71
2023/04/16 05:33:22;;;;;;;18.55;8.65;;;;;;;7.52;99.73;92590.25;5089850;28;20098;-71
2023/04/16 05:35:48;;;;;;;18.15;7.95;;;;;;;7.60;98.55;92597.66;5090027;28;20457;-71
2023/04/16 05:38:16;;;;;;;15.27;8.07;;;;;;;7.71;97.13;92590.31;5076322;28;20078;-71
2023/04/16 05:40:43;;;;;;;13.13;7.10;;;;;;;7.84;96.01;92595.34;5089801;28;20052;-71
2023/04/16 05:43:10;;;;;;;15.65;7.88;;;;;;;7.91;95.02;92597.06;5089274;28;20641;-71
2023/04/16 05:45:39;;;;;;;14.00;7.78;;;;;;;7.97;94.01;92598.78;5089779;28;20096;-71
2023/04/16 05:48:07;;;;;;;15.05;6.72;;;;;;;8.05;93.41;92595.19;5089623;28;20504;-71
2023/04/16 05:50:33;;;;;;;10.15;5.70;;;;;;;8.08;92.65;92598.13;5089037;28;20496;-71
2023/04/16 05:53:00;;;;;;;12.23;6.80;;;;;;;8.14;93.87;92594.72;5089694;28;20262;-71
2023/04/16 05:55:28;;;;;;;17.17;8.63;;;;;;;8.23;93.63;92595.22;5089253;28;20052;-71
2023/04/16 05:57:55;;;;;;;14.60;9.00;;;;;;;8.34;93.19;92595.53;5089623;28;20048;-71
2023/04/16 06:00:21;;;;;;;21.15;12.25;;;;;;;8.48;90.91;92588.53;5089001;28;20048;-71
2023/04/16 06:02:48;;;;;;;15.75;9.27;;;;;;;8.58;89.86;92581.16;5089651;28;20469;-71
2023/04/16 06:05:15;;;;;;;14.80;8.40;;;;;;;8.73;87.67;92580.81;5089016;28;20044;-71
2023/04/16 06:07:42;;;;;;;14.38;8.30;;;;;;;8.84;86.31;92571.63;5088929;28;20420;-71
2023/04/16 06:10:10;;;;;;;8.95;5.55;;;;;;;8.99;85.40;92580.72;5089399;28;20040;-71
2023/04/16 06:12:38;;;;;;;9.93;6.03;;;;;;;9.16;84.15;92580.94;5088654;28;20048;-71
2023/04/16 06:15:05;;;;;;;12.05;7.50;;;;;;;9.32;84.70;92579.53;5088987;28;20047;-71
2023/04/16 06:17:32;;;;;;;11.20;7.03;;;;;;;9.42;84.04;92574.69;5088496;28;20052;-71
2023/04/16 06:19:59;;;;;;;17.42;10.88;;;;;;;9.49;84.24;92577.94;5088429;28;20048;-72
2023/04/16 06:22:25;;;;;;;17.65;11.18;;;;;;;9.60;83.87;92589.25;5089209;28;20040;-72
2023/04/16 06:24:52;;;;;;;13.82;9.68;;;;;;;9.70;82.54;92586.13;5088757;28;20052;-71
2023/04/16 06:27:19;;;;;;;14.68;8.55;;;;;;;9.73;80.57;92577.22;5084498;28;20089;-71
2023/04/16 06:29:48;;;;;;;13.55;7.85;;;;;;;9.40;82.59;92566.41;5083881;28;20128;-71
2023/04/16 06:32:16;;;;;;;14.80;8.32;;;;;;;9.61;82.75;92559.22;5070430;28;20052;-72
2023/04/16 06:34:42;;;;;;;16.60;10.65;;;;;;;9.68;82.65;92569.41;5088498;28;20527;-72
2023/04/16 06:37:09;;;;;;;15.68;7.35;;;;;;;9.51;80.73;92575.16;5089228;28;20153;-72
2023/04/16 06:39:36;;;;;;;8.73;5.22;;;;;;;9.72;80.05;92573.88;5088388;28;20393;-72
2023/04/16 06:42:03;;;;;;;10.68;5.28;;;;;;;9.76;79.48;92572.44;5088685;28;20090;-72
2023/04/16 06:44:29;;;;;;;9.30;4.15;;;;;;;9.75;77.09;92559.81;5088304;28;20500;-72
2023/04/16 06:46:57;;;;;;;7.90;4.18;;;;;;;10.07;77.98;92558.75;5088467;28;20109;-72
2023/04/16 06:49:24;;;;;;;9.43;4.95;;;;;;;10.23;75.13;92570.91;5087739;28;20468;-72
2023/04/16 06:51:51;;;;;;;7.45;3.67;;;;;;;10.25;75.27;92571.50;5088648;28;20537;-72
2023/04/16 06:54:18;;;;;;;13.40;6.68;;;;;;;10.60;75.59;92571.72;5088374;28;20044;-72
2023/04/16 06:56:45;;;;;;;12.10;5.15;;;;;;;10.77;76.60;92566.66;5087945;28;20044;-72
2023/04/16 06:59:11;;;;;;;9.75;5.05;;;;;;;10.51;71.32;92564.34;5088224;28;20113;-72
2023/04/16 07:01:38;;;;;;;22.25;9.23;;;;;;;10.35;75.42;92568.34;5084392;28;20052;-73
2023/04/16 07:04:17;;;;;;;17.85;8.75;;;;;;;10.54;78.32;92563.91;5079037;28;20183;-72
2023/04/16 07:06:44;;;;;;;12.27;6.22;;;;;;;10.80;74.88;92566.22;5073606;28;20131;-72
2023/04/16 07:09:11;;;;;;;10.52;4.78;;;;;;;11.29;72.97;92562.50;5084815;28;20468;-72
2023/04/16 07:11:44;;;;;;;13.93;6.95;;;;;;;11.67;73.71;92558.50;5088268;28;20052;-72
2023/04/16 07:14:11;;;;;;;8.60;4.72;;;;;;;12.01;69.10;92568.84;5087929;28;20064;-72
2023/04/16 07:16:38;;;;;;;6.78;3.55;;;;;;;12.40;65.73;92569.91;5087942;28;20109;-72
2023/04/16 07:19:05;;;;;;;5.32;3.15;;;;;;;12.79;64.06;92561.41;5087135;28;20524;-72
2023/04/16 07:21:33;;;;;;;6.88;3.50;;;;;;;13.25;64.81;92558.59;5087257;28;20171;-72
2023/04/16 07:23:59;;;;;;;8.10;3.22;;;;;;;13.74;63.31;92560.38;5086890;28;20389;-72
2023/04/16 07:26:26;;;;;;;8.52;2.70;;;;;;;13.93;61.91;92529.03;5088023;28;20097;-72
2023/04/16 07:28:53;;;;;;;10.20;2.80;;;;;;;14.52;61.22;92555.75;5087394;28;20565;-72
2023/04/16 07:31:20;;;;;;;5.38;2.63;;;;;;;14.85;58.84;92552.34;5074439;28;20044;-72
2023/04/16 07:33:46;;;;;;;4.93;2.08;;;;;;;15.07;56.26;92555.53;5087435;28;20101;-72
2023/04/16 07:36:13;;;;;;;6.07;2.28;;;;;;;15.32;56.61;92555.88;5087206;28;20078;-72
2023/04/16 07:38:41;;;;;;;3.40;1.33;;;;;;;15.60;54.52;92553.84;5087710;28;20101;-72
2023/04/16 07:41:08;;;;;;;2.42;1.05;;;;;;;15.75;52.27;92559.03;5087303;28;20542;-72
2023/04/16 07:43:35;;;;;;;3.72;1.38;;;;;;;15.85;52.13;92560.09;5087115;28;20079;-72
2023/04/16 07:46:01;;;;;;;3.75;0.70;;;;;;;15.99;52.39;92565.56;5086775;28;20044;-72
2023/04/16 07:48:45;;;;;;;11.32;5.80;;;;;;;15.54;51.65;92482.38;5087381;28;20040;-72
2023/04/16 07:51:14;;;;;;;27.80;17.42;;;;;;;16.15;50.52;92559.34;5077855;28;20057;-72
2023/04/16 07:53:42;;;;;;;10.73;5.90;;;;;;;16.18;51.00;92558.03;5081346;28;20048;-72
2023/04/16 07:56:09;;;;;;;4.55;2.60;;;;;;;16.29;50.51;92554.41;5087680;28;20176;-72
2023/04/16 07:58:36;;;;;;;9.18;3.70;;;;;;;16.41;49.96;92550.75;5087039;28;20048;-72
2023/04/16 08:01:03;;;;;;;7.65;5.05;;;;;;;16.41;49.55;92551.53;5087003;28;20290;-72
2023/04/16 08:03:29;;;;;;;8.20;4.78;;;;;;;16.24;49.43;92536.28;5086772;28;20129;-72
2023/04/16 08:05:57;;;;;;;4.53;2.90;;;;;;;16.35;48.59;92557.00;5087233;28;20385;-72
2023/04/16 08:08:24;;;;;;;9.50;4.28;;;;;;;16.24;49.47;92543.28;5087216;28;20053;-72
2023/04/16 08:10:54;;;;;;;3.53;2.05;;;;;;;16.08;48.99;92532.13;5086883;28;20075;-72
2023/04/16 08:13:22;;;;;;;40.13;27.10;;;;;;;16.26;49.38;92546.38;5086910;28;20097;-72
2023/04/16 08:15:48;;;;;;;8.63;5.80;;;;;;;16.34;48.47;92550.25;5086963;28;20090;-72
2023/04/16 08:18:15;;;;;;;6.78;2.70;;;;;;;16.35;48.73;92554.41;5086387;28;20534;-72
2023/04/16 08:20:42;;;;;;;3.58;1.77;;;;;;;16.26;49.54;92533.41;5087067;28;20048;-72
2023/04/16 08:23:09;;;;;;;3.88;2.15;;;;;;;16.36;49.47;92546.38;5086231;28;20447;-72
2023/04/16 08:25:35;;;;;;;20.15;13.68;;;;;;;16.32;49.54;92537.56;5086669;28;20048;-72
2023/04/16 08:28:04;;;;;;;6.43;3.85;;;;;;;16.30;49.18;92530.03;5065142;28;20509;-72
2023/04/16 08:30:31;;;;;;;5.18;2.60;;;;;;;16.25;49.12;92530.03;5075304;28;20048;-72
2023/04/16 08:32:57;;;;;;;3.25;1.50;;;;;;;16.44;48.94;92550.25;5082575;28;20048;-72
2023/04/16 08:35:24;;;;;;;7.05;1.73;;;;;;;16.34;48.73;92519.16;5089820;28;20463;-72
2023/04/16 08:37:52;;;;;;;20.90;12.60;;;;;;;16.45;48.41;92544.03;5076813;28;20063;-72
2023/04/16 08:40:19;;;;;;;209.13;90.50;;;;;;;16.43;48.75;92533.13;5091142;28;20048;-72
2023/04/16 08:42:52;;;;;;;27.90;13.35;;;;;;;16.46;48.33;92539.59;5077638;28;20043;-72
2023/04/16 08:45:20;;;;;;;11.63;5.53;;;;;;;16.51;48.59;92529.22;5080786;28;20087;-72
2023/04/16 08:47:48;;;;;;;3.55;1.23;;;;;;;16.56;47.90;92524.81;5088534;28;20074;-72
2023/04/16 08:50:15;;;;;;;6.53;2.22;;;;;;;16.40;47.24;92520.69;5090683;28;20052;-72
2023/04/16 08:52:50;;;;;;;52.10;21.35;;;;;;;16.45;47.75;92519.91;5090461;28;20118;-72
2023/04/16 08:55:19;;;;;;;4.82;2.10;;;;;;;16.41;45.80;92535.22;5090360;28;20040;-72
2023/04/16 08:57:52;;;;;;;13.95;5.25;;;;;;;16.47;48.31;92536.00;5090626;28;20045;-72
2023/04/16 09:00:21;;;;;;;98.90;28.40;;;;;;;16.63;48.59;92529.72;5089897;28;20048;-72
2023/04/16 09:02:48;;;;;;;50.85;16.55;;;;;;;16.78;48.05;92531.50;5090826;28;20086;-72
2023/04/16 09:05:17;;;;;;;17.77;7.15;;;;;;;16.98;48.04;92521.31;5089347;28;20809;-72
2023/04/16 09:07:45;;;;;;;8.63;2.65;;;;;;;17.16;45.90;92527.72;5078373;28;20157;-72
2023/04/16 09:10:12;;;;;;;334.40;112.38;;;;;;;17.37;47.28;92525.81;5076759;28;20132;-72
2023/04/16 09:12:41;;;;;;;30.85;11.18;;;;;;;17.40;45.90;92521.91;5090280;28;20450;-72
2023/04/16 09:15:10;;;;;;;8.10;3.53;;;;;;;17.49;46.82;92518.47;5089866;28;20097;-72
2023/04/16 09:17:38;;;;;;;4.30;1.48;;;;;;;17.51;45.96;92520.78;5090397;28;20052;-72
2023/04/16 09:20:07;;;;;;;8.15;1.45;;;;;;;17.44;43.24;92523.69;5090408;28;20052;-72
2023/04/16 09:22:34;;;;;;;117.45;41.00;;;;;;;17.61;46.52;92522.53;5090221;28;20390;-72
2023/04/16 09:25:01;;;;;;;65.20;22.58;;;;;;;17.80;46.84;92517.47;5090380;28;20093;-72
2023/04/16 09:27:28;;;;;;;13.07;3.67;;;;;;;17.92;45.70;92501.53;5089878;28;20102;-72
2023/04/16 09:29:55;;;;;;;3.40;1.40;;;;;;;18.32;43.45;92513.69;5083971;28;20040;-72
2023/04/16 09:32:26;;;;;;;5.30;1.83;;;;;;;17.67;44.08;92518.09;5081412;28;20044;-73
2023/04/16 09:34:58;;;;;;;7.32;1.40;;;;;;;17.16;45.50;92512.16;5089780;28;20051;-72
2023/04/16 09:37:25;;;;;;;6.43;1.90;;;;;;;16.86;48.39;92511.22;5089357;28;20044;-72
2023/04/16 09:39:57;;;;;;;37.92;13.13;;;;;;;17.06;45.78;92512.97;5082893;28;20049;-72
2023/04/16 09:42:27;;;;;;;9.77;2.20;;;;;;;17.36;45.57;92512.03;5084077;28;20113;-72
2023/04/16 09:44:54;;;;;;;5.20;1.58;;;;;;;17.12;45.31;92504.13;5089504;28;20044;-72
2023/04/16 09:47:21;;;;;;;6.90;2.22;;;;;;;17.39;47.25;92508.13;5088834;28;20048;-72
2023/04/16 09:49:48;;;;;;;8.85;1.75;;;;;;;16.47;46.64;92517.84;5089507;28;20090;-73
2023/04/16 09:52:17;;;;;;;5.60;1.40;;;;;;;16.41;46.19;92489.34;5088834;28;20048;-73
2023/04/16 09:54:51;;;;;;;8.57;2.88;;;;;;;17.44;46.49;92512.50;5089805;28;20565;-73
2023/04/16 09:57:22;;;;;;;4.78;1.73;;;;;;;17.92;43.46;92505.94;5086952;28;20043;-73
2023/04/16 09:59:52;;;;;;;6.47;1.45;;;;;;;18.58;44.76;92501.22;5089389;28;20500;-73
2023/04/16 10:02:25;;;;;;;4.93;1.17;;;;;;;18.75;41.03;92446.13;5089370;28;20121;-73
2023/04/16 10:04:53;;;;;;;4.03;1.08;;;;;;;19.14;41.82;92495.63;5078718;28;20563;-73
2023/04/16 10:07:21;;;;;;;3.97;1.00;;;;;;;18.01;42.23;92499.88;5087060;28;20101;-73
2023/04/16 10:09:52;;;;;;;6.78;1.10;;;;;;;18.64;40.57;92494.13;5089285;28;20044;-73
2023/04/16 10:12:24;;;;;;;16.63;2.22;;;;;;;19.42;44.38;92491.38;5087237;28;20048;-74
2023/04/16 10:14:51;;;;;;;5.85;1.10;;;;;;;20.03;41.22;92488.13;5072657;28;20504;-75
2023/04/16 10:17:21;;;;;;;8.30;3.40;;;;;;;20.42;41.02;92480.94;5084845;28;20457;-73
2023/04/16 10:19:48;;;;;;;3.03;1.00;;;;;;;20.65;38.14;92479.19;5088684;28;20080;-74
2023/04/16 10:22:15;;;;;;;3.35;0.93;;;;;;;20.59;37.77;92471.78;5076797;28;20564;-74
2023/04/16 10:24:43;;;;;;;9.68;4.88;;;;;;;21.01;39.96;92458.72;5076635;28;20053;-74
2023/04/16 10:27:11;;;;;;;1.90;0.77;;;;;;;20.87;36.34;92475.16;5088957;28;20272;-73
2023/04/16 10:29:38;;;;;;;4.32;1.90;;;;;;;20.68;39.47;92470.81;5085416;28;20052;-73
2023/04/16 10:32:06;;;;;;;4.18;1.13;;;;;;;20.60;39.05;92474.06;5078303;28;20051;-73
2023/04/16 10:34:33;;;;;;;8.88;1.20;;;;;;;20.75;38.06;92467.03;5088362;28;20044;-73
2023/04/16 10:37:00;;;;;;;2.35;1.10;;;;;;;20.19;38.55;92448.75;5088981;28;20101;-73
2023/04/16 10:39:29;;;;;;;3.78;1.15;;;;;;;20.24;39.62;92453.88;5088070;28;20040;-73
2023/04/16 10:42:09;;;;;;;2.08;0.60;;;;;;;20.33;37.10;92461.81;5088344;28;20067;-73
2023/04/16 10:44:35;;;;;;;6.35;0.60;;;;;;;20.53;38.39;92456.22;5087962;28;20143;-73
2023/04/16 10:47:02;;;;;;;2.75;1.17;;;;;;;20.71;37.26;92456.41;5088755;28;20050;-73
2023/04/16 10:49:29;;;;;;;4.30;1.70;;;;;;;20.89;38.20;92439.09;5088372;28;20044;-74
2023/04/16 10:51:58;;;;;;;4.03;1.40;;;;;;;20.99;38.31;92453.78;5088185;28;20097;-73
2023/04/16 10:54:26;;;;;;;5.93;2.75;;;;;;;20.60;36.34;92398.41;5074494;28;20507;-73
2023/04/16 10:56:55;;;;;;;7.63;2.20;;;;;;;21.01;38.72;92451.63;5088299;28;20044;-73
2023/04/16 10:59:24;;;;;;;10.48;2.70;;;;;;;21.07;37.73;92447.84;5074847;28;20055;-73
2023/04/16 11:01:52;;;;;;;7.97;1.90;;;;;;;21.13;38.18;92450.34;5087933;28;20452;-73
2023/04/16 11:04:44;;;;;;;4.93;1.35;;;;;;;21.13;38.18;92437.31;5088525;28;20440;-74
2023/04/16 11:07:19;;;;;;;14.20;3.60;;;;;;;21.13;38.00;92430.25;5073277;28;20055;-74
2023/04/16 11:09:50;;;;;;;19.00;7.33;;;;;;;21.20;37.22;92435.84;5087967;28;20056;-73
2023/04/16 11:12:18;;;;;;;14.30;4.32;;;;;;;21.30;37.66;92437.44;5062943;28;20297;-73
2023/04/16 11:14:50;;;;;;;3.85;1.25;;;;;;;21.03;37.76;92436.47;5078501;28;20056;-73
2023/04/16 11:17:17;;;;;;;4.20;1.25;;;;;;;20.24;37.44;92440.84;5087767;28;20056;-73
2023/04/16 11:19:44;;;;;;;5.80;1.00;;;;;;;20.00;38.79;92433.97;5086724;28;20044;-73
2023/04/16 11:22:13;;;;;;;3.72;0.95;;;;;;;18.83;40.69;92436.91;5087979;28;20052;-73
2023/04/16 11:24:41;;;;;;;4.00;1.05;;;;;;;18.74;42.58;92430.81;5087587;28;20139;-74
2023/04/16 11:27:07;;;;;;;3.75;1.10;;;;;;;17.99;42.69;92426.66;5088078;28;20048;-73
2023/04/16 11:29:34;;;;;;;3.60;1.40;;;;;;;17.88;43.29;92428.53;5085963;28;20532;-73
2023/04/16 11:32:03;;;;;;;2.78;1.20;;;;;;;17.38;46.14;92433.91;5079781;28;20492;-73